createdAt,value
2018-05-15T00:01:08.592Z,13.60
2018-05-15T00:06:36.818Z,13.50
2018-05-15T00:12:04.986Z,13.30
2018-05-15T00:17:39.140Z,13.30
2018-05-15T00:23:11.476Z,13.30
2018-05-15T00:28:40.510Z,13.30
2018-05-15T00:34:12.537Z,13.30
2018-05-15T00:39:40.695Z,13.30
2018-05-15T00:45:08.865Z,13.40
2018-05-15T00:50:37.093Z,13.50
2018-05-15T00:56:05.248Z,13.60
2018-05-15T01:01:34.307Z,13.60
2018-05-15T01:07:02.468Z,13.70
2018-05-15T01:12:31.392Z,13.80
2018-05-15T01:18:00.275Z,13.80
2018-05-15T01:23:28.452Z,13.80
2018-05-15T01:28:57.353Z,13.80
2018-05-15T01:34:25.566Z,13.80
2018-05-15T01:39:54.442Z,13.80
2018-05-15T01:45:22.573Z,13.80
2018-05-15T01:50:51.483Z,13.70
2018-05-15T01:56:19.632Z,13.60
2018-05-15T02:01:48.544Z,13.60
2018-05-15T02:07:16.675Z,13.50
2018-05-15T02:12:44.824Z,13.50
2018-05-15T02:18:12.966Z,13.40
2018-05-15T02:23:41.145Z,13.30
2018-05-15T02:29:10.074Z,13.20
2018-05-15T02:34:39.007Z,13.10
2018-05-15T02:40:07.939Z,13.00
2018-05-15T02:45:36.132Z,13.00
2018-05-15T02:51:04.304Z,12.90
2018-05-15T02:56:33.254Z,12.80
2018-05-15T03:02:01.439Z,12.70
2018-05-15T03:07:34.343Z,12.60
2018-05-15T03:13:02.556Z,12.60
2018-05-15T03:18:30.903Z,12.50
2018-05-15T03:23:59.036Z,12.50
2018-05-15T03:29:27.969Z,12.40
2018-05-15T03:34:56.116Z,12.40
2018-05-15T03:40:24.269Z,12.30
2018-05-15T03:45:52.414Z,12.30
2018-05-15T03:51:28.715Z,12.30
2018-05-15T03:56:56.904Z,12.30
2018-05-15T04:08:41.855Z,12.40
2018-05-15T04:14:09.937Z,12.50
2018-05-15T04:19:38.149Z,12.60
2018-05-15T04:25:06.342Z,12.60
2018-05-15T04:30:34.502Z,12.70
2018-05-15T04:36:04.655Z,12.90
2018-05-15T04:41:33.985Z,13.00
2018-05-15T04:47:02.161Z,13.20
2018-05-15T04:52:31.078Z,13.40
2018-05-15T04:57:59.246Z,13.70
2018-05-15T05:03:27.367Z,13.90
2018-05-15T05:08:55.516Z,14.00
2018-05-15T05:14:23.681Z,14.10
2018-05-15T05:19:52.581Z,14.10
2018-05-15T05:25:20.737Z,14.20
2018-05-15T05:30:48.880Z,14.30
2018-05-15T05:36:17.021Z,14.30
2018-05-15T05:41:45.160Z,14.30
2018-05-15T05:47:13.306Z,14.30
2018-05-15T05:52:41.490Z,14.50
2018-05-15T05:58:09.640Z,14.60
2018-05-15T06:03:37.877Z,14.70
2018-05-15T06:09:06.800Z,14.80
2018-05-15T06:14:34.972Z,14.90
2018-05-15T06:20:03.137Z,14.80
2018-05-15T06:25:31.287Z,14.80
2018-05-15T06:31:00.224Z,14.60
2018-05-15T06:36:29.132Z,14.50
2018-05-15T06:41:57.289Z,14.30
2018-05-15T06:47:25.437Z,14.20
2018-05-15T06:52:53.576Z,14.00
2018-05-15T06:58:21.735Z,14.00
2018-05-15T07:03:50.659Z,14.00
2018-05-15T07:09:18.817Z,14.10
2018-05-15T07:14:46.959Z,14.20
2018-05-15T07:20:15.096Z,14.30
2018-05-15T07:25:43.275Z,14.50
2018-05-15T07:31:11.446Z,14.50
2018-05-15T07:36:39.641Z,14.60
2018-05-15T07:42:07.824Z,14.60
2018-05-15T07:47:35.967Z,14.70
2018-05-15T07:53:04.152Z,14.80
2018-05-15T07:58:33.098Z,15.10
2018-05-15T08:04:01.241Z,15.10
2018-05-15T08:09:29.401Z,15.10
2018-05-15T08:14:57.728Z,15.20
2018-05-15T08:20:25.898Z,15.30
2018-05-15T08:25:54.062Z,15.60
2018-05-15T08:31:22.210Z,15.90
2018-05-15T08:36:51.132Z,15.90
2018-05-15T08:42:19.256Z,15.70
2018-05-15T08:47:47.403Z,15.70
2018-05-15T08:53:15.553Z,15.70
2018-05-15T08:58:43.687Z,15.70
2018-05-15T09:04:11.839Z,16.00
2018-05-15T09:09:40.750Z,16.30
2018-05-15T09:15:08.952Z,16.30
2018-05-15T09:20:37.136Z,16.40
2018-05-15T09:26:06.123Z,16.50
2018-05-15T09:31:34.307Z,16.40
2018-05-15T09:37:02.472Z,16.40
2018-05-15T09:42:30.617Z,16.70
2018-05-15T09:47:59.530Z,16.80
2018-05-15T09:53:27.673Z,16.60
2018-05-15T09:58:55.829Z,16.60
2018-05-15T10:04:23.987Z,16.40
2018-05-15T10:09:52.125Z,16.30
2018-05-15T10:15:20.269Z,16.10
2018-05-15T10:20:49.174Z,15.40
2018-05-15T10:26:17.323Z,14.70
2018-05-15T10:31:45.471Z,13.90
2018-05-15T10:37:13.701Z,13.30
2018-05-15T10:42:41.771Z,12.80
2018-05-15T10:48:09.942Z,12.70
2018-05-15T10:53:38.106Z,12.70
2018-05-15T10:59:06.297Z,12.80
2018-05-15T11:04:34.504Z,13.00
2018-05-15T11:10:02.995Z,13.10
2018-05-15T11:15:31.168Z,13.40
2018-05-15T11:21:17.271Z,13.60
2018-05-15T11:26:45.408Z,14.00
2018-05-15T11:32:13.554Z,14.30
2018-05-15T11:37:41.714Z,14.60
2018-05-15T11:43:10.640Z,15.00
2018-05-15T11:48:39.174Z,15.40
2018-05-15T11:54:07.001Z,15.50
2018-05-15T11:59:35.184Z,15.40
2018-05-15T12:05:03.352Z,15.50
2018-05-15T12:10:31.553Z,15.50
2018-05-15T12:15:59.668Z,15.50
2018-05-15T12:21:28.576Z,15.50
2018-05-15T12:26:56.737Z,15.30
2018-05-15T12:32:25.670Z,15.00
2018-05-15T12:37:54.580Z,14.70
2018-05-15T12:43:22.720Z,14.40
2018-05-15T12:48:51.669Z,14.00
2018-05-15T12:54:19.793Z,13.70
2018-05-15T12:59:47.942Z,13.50
2018-05-15T13:05:16.094Z,13.30
2018-05-15T13:10:44.237Z,12.90
2018-05-15T13:16:13.148Z,12.60
2018-05-15T13:21:41.293Z,12.50
2018-05-15T13:27:10.197Z,12.40
2018-05-15T13:32:38.350Z,12.50
2018-05-15T13:38:07.259Z,12.60
2018-05-15T13:43:35.458Z,12.70
2018-05-15T13:49:03.653Z,12.90
2018-05-15T13:54:32.304Z,13.20
2018-05-15T14:00:00.458Z,13.60
2018-05-15T14:05:28.608Z,14.00
2018-05-15T14:10:57.503Z,14.50
2018-05-15T14:16:25.647Z,14.90
2018-05-15T14:21:53.793Z,15.30
2018-05-15T14:27:21.949Z,15.50
2018-05-15T14:32:50.113Z,15.70
2018-05-15T14:38:19.034Z,16.00
2018-05-15T14:43:47.172Z,16.60
2018-05-15T14:49:16.074Z,17.60
2018-05-15T14:54:44.230Z,18.80
2018-05-15T15:00:13.141Z,19.70
2018-05-15T15:05:41.324Z,19.10
2018-05-15T15:11:09.519Z,18.40
2018-05-15T15:16:37.672Z,17.80
2018-05-15T15:22:05.858Z,17.30
2018-05-15T15:27:34.006Z,17.10
2018-05-15T15:33:02.198Z,17.00
2018-05-15T15:38:30.346Z,16.80
2018-05-15T15:43:58.480Z,16.70
2018-05-15T15:49:26.638Z,16.70
2018-05-15T15:54:55.536Z,16.60
2018-05-15T16:00:23.659Z,16.60
2018-05-15T16:05:51.835Z,16.60
2018-05-15T16:11:19.997Z,16.50
2018-05-15T16:16:48.137Z,16.50
2018-05-15T16:22:16.287Z,16.50
2018-05-15T16:27:44.446Z,16.60
2018-05-15T16:33:12.616Z,16.70
2018-05-15T16:38:46.157Z,16.80
2018-05-15T16:44:15.077Z,16.70
2018-05-15T16:49:44.131Z,16.50
2018-05-15T16:55:13.047Z,16.30
2018-05-15T17:00:41.237Z,16.10
2018-05-15T17:06:09.356Z,16.00
2018-05-15T17:11:37.557Z,15.80
2018-05-15T17:17:05.851Z,15.60
2018-05-15T17:22:34.862Z,15.40
2018-05-15T17:28:03.125Z,15.20
2018-05-15T17:33:32.079Z,14.80
2018-05-15T17:39:00.252Z,14.00
2018-05-15T17:44:28.406Z,13.30
2018-05-15T17:49:57.318Z,12.90
2018-05-15T17:55:27.398Z,12.50
2018-05-15T18:00:56.303Z,12.20
2018-05-15T18:06:24.456Z,11.80
2018-05-15T18:11:53.384Z,11.60
2018-05-15T18:17:21.550Z,11.40
2018-05-15T18:22:49.716Z,11.30
2018-05-15T18:28:17.856Z,11.10
2018-05-15T18:33:46.834Z,11.00
2018-05-15T18:39:16.413Z,10.90
2018-05-15T18:44:44.541Z,10.80
2018-05-15T18:50:12.825Z,10.70
2018-05-15T18:55:41.131Z,10.60
2018-05-15T19:01:09.391Z,10.50
2018-05-15T19:06:37.585Z,10.40
2018-05-15T19:12:06.828Z,10.40
2018-05-15T19:17:35.179Z,10.30
2018-05-15T19:23:03.555Z,10.30
2018-05-15T19:28:32.531Z,10.20
2018-05-15T19:34:00.723Z,10.20
2018-05-15T19:39:33.824Z,10.20
2018-05-15T19:45:02.767Z,10.10
2018-05-15T19:50:31.001Z,10.10
2018-05-15T19:55:59.937Z,10.10
2018-05-15T20:01:28.061Z,10.00
2018-05-15T20:06:56.992Z,10.00
2018-05-15T20:12:25.936Z,10.00
2018-05-15T20:17:54.893Z,9.90
2018-05-15T20:23:24.072Z,9.90
2018-05-15T20:28:52.205Z,9.90
2018-05-15T20:34:20.369Z,9.80
2018-05-15T20:39:49.380Z,9.80
2018-05-15T20:45:17.528Z,9.80
2018-05-15T20:50:46.489Z,9.90
2018-05-15T20:56:14.698Z,9.80
2018-05-15T21:01:42.856Z,9.80
2018-05-15T21:07:11.043Z,9.80
2018-05-15T21:12:39.207Z,9.80
2018-05-15T21:18:07.494Z,9.70
2018-05-15T21:23:35.588Z,9.70
2018-05-15T21:29:04.603Z,9.70
2018-05-15T21:34:32.799Z,9.70
2018-05-15T21:40:00.980Z,9.70
2018-05-15T21:45:29.130Z,9.70
2018-05-15T21:50:57.306Z,9.70
2018-05-15T21:56:26.236Z,10.10
2018-05-15T22:01:55.124Z,9.90
2018-05-15T22:07:23.264Z,9.90
2018-05-15T22:13:09.411Z,9.90
2018-05-15T22:18:56.445Z,9.90
2018-05-15T22:24:31.584Z,9.90
2018-05-15T22:30:00.502Z,9.90
2018-05-15T22:35:28.656Z,9.90
2018-05-15T22:40:56.808Z,9.90
2018-05-15T22:46:24.964Z,9.90
2018-05-15T22:51:53.115Z,9.90
2018-05-15T22:57:21.297Z,9.90
2018-05-15T23:02:49.439Z,9.80
2018-05-15T23:08:18.352Z,9.80
2018-05-15T23:13:46.506Z,9.80
2018-05-15T23:19:15.419Z,9.80
2018-05-15T23:24:43.560Z,9.80
2018-05-15T23:30:12.517Z,9.80
2018-05-15T23:35:40.670Z,9.80
2018-05-15T23:41:08.836Z,9.70
2018-05-15T23:46:37.778Z,9.70
2018-05-15T23:52:06.721Z,9.70
2018-05-15T23:57:34.909Z,9.60
